Time;durP1;ratioP1;P1;durP2;ratioP2;P2;SDS_P1;SDS_P2;PMS_P1;PMS_P2;Temp;Humidity;BMP_temperature;BMP_pressure;BME280_temperature;BME280_humidity;BME280_pressure;Samples;Min_cycle;Max_cycle;Signal;HPM_P1;HPM_P2
2022/07/12 00:01:00;;;;;;;;;;;;;;;23.16;44.77;101030.50;7403976;19;1823;-41
2022/07/12 00:03:28;;;;;;;;;;;;;;;23.13;44.36;101022.69;7402213;19;1693;-41
2022/07/12 00:05:57;;;;;;;;;;;;;;;23.20;44.45;101018.38;7401942;19;1672;-41
2022/07/12 00:08:27;;;;;;;;;;;;;;;23.20;44.42;101021.09;7403089;19;1797;-41
2022/07/12 00:10:56;;;;;;;;;;;;;;;23.19;44.33;101024.78;7401525;19;1567;-43
2022/07/12 00:13:24;;;;;;;;;;;;;;;23.21;44.32;101023.59;7401538;19;1849;-41
2022/07/12 00:15:52;;;;;;;;;;;;;;;23.19;44.32;101020.22;7402372;19;1674;-41
2022/07/12 00:18:20;;;;;;;;;;;;;;;23.19;44.54;101031.00;7401734;19;1592;-41
2022/07/12 00:20:49;;;;;;;;;;;;;;;23.17;44.06;101029.47;7401808;19;1795;-41
2022/07/12 00:23:17;;;;;;;;;;;;;;;23.16;44.36;101031.34;7403437;19;1718;-41
2022/07/12 00:25:48;;;;;;;;;;;;;;;23.19;44.23;101040.97;7401192;19;1620;-41
2022/07/12 00:28:16;;;;;;;;;;;;;;;23.14;44.04;101037.88;7401343;19;1786;-41
2022/07/12 00:30:46;;;;;;;;;;;;;;;23.14;44.17;101040.56;7402105;19;1577;-41
2022/07/12 00:33:15;;;;;;;;;;;;;;;23.14;44.18;101032.47;7400314;19;1855;-41
2022/07/12 00:35:43;;;;;;;;;;;;;;;23.12;44.10;101037.19;7401109;19;1770;-41
2022/07/12 00:38:11;;;;;;;;;;;;;;;23.13;44.36;101063.16;7402548;19;1782;-41
2022/07/12 00:40:39;;;;;;;;;;;;;;;23.14;44.34;101052.22;7399820;19;1896;-41
2022/07/12 00:43:10;;;;;;;;;;;;;;;23.10;44.28;101053.53;7401479;19;1629;-42
2022/07/12 00:45:39;;;;;;;;;;;;;;;23.10;44.25;101052.69;7401320;19;1827;-41
2022/07/12 00:48:07;;;;;;;;;;;;;;;23.10;44.19;101053.53;7400126;19;1959;-40
2022/07/12 00:50:36;;;;;;;;;;;;;;;23.09;44.11;101075.28;7400849;19;1757;-41
2022/07/12 00:53:04;;;;;;;;;;;;;;;23.09;44.18;101051.00;7401806;19;1869;-41
2022/07/12 00:55:33;;;;;;;;;;;;;;;23.09;44.08;101059.94;7400776;19;1793;-41
2022/07/12 00:58:01;;;;;;;;;;;;;;;23.05;44.15;101036.97;7400321;19;1609;-41
2022/07/12 01:00:32;;;;;;;;;;;;;;;22.99;44.03;101070.75;7400513;19;1626;-41
2022/07/12 01:03:00;;;;;;;;;;;;;;;23.02;44.13;101065.09;7399752;19;1970;-41
2022/07/12 01:05:29;;;;;;;;;;;;;;;22.99;43.85;101072.63;7401342;19;1673;-42
2022/07/12 01:07:58;;;;;;;;;;;;;;;22.94;44.17;101053.34;7401914;19;1495;-41
2022/07/12 01:10:26;;;;;;;;;;;;;;;22.94;44.46;101070.41;7401559;19;1960;-41
2022/07/12 01:12:55;;;;;;;;;;;;;;;22.94;44.04;101058.75;7398520;19;1890;-42
2022/07/12 01:15:23;;;;;;;;;;;;;;;22.95;44.25;101066.69;7400406;19;1601;-41
2022/07/12 01:17:56;;;;;;;;;;;;;;;22.91;43.85;101065.28;7399614;19;1689;-41
2022/07/12 01:20:24;;;;;;;;;;;;;;;22.94;44.13;101067.69;7401054;19;1934;-41
2022/07/12 01:22:57;;;;;;;;;;;;;;;22.96;44.01;101073.78;7401097;19;1630;-41
2022/07/12 01:25:25;;;;;;;;;;;;;;;22.95;43.90;101053.19;7400394;19;1679;-41
2022/07/12 01:27:54;;;;;;;;;;;;;;;22.96;44.13;101076.47;7400457;19;1959;-41
2022/07/12 01:30:22;;;;;;;;;;;;;;;22.95;43.92;101066.69;7400731;19;1857;-42
2022/07/12 01:32:50;;;;;;;;;;;;;;;22.92;43.77;101071.53;7399661;19;1861;-43
2022/07/12 01:35:18;;;;;;;;;;;;;;;22.91;44.10;101059.91;7400786;19;1704;-40
2022/07/12 01:37:47;;;;;;;;;;;;;;;22.94;44.14;101056.03;7400610;19;1747;-41
2022/07/12 01:40:18;;;;;;;;;;;;;;;22.93;43.83;101055.19;7400364;19;1874;-41
2022/07/12 01:42:47;;;;;;;;;;;;;;;22.88;44.20;101059.34;7399940;19;1736;-41
2022/07/12 01:45:15;;;;;;;;;;;;;;;22.87;43.99;101050.44;7398801;19;1586;-41
2022/07/12 01:47:43;;;;;;;;;;;;;;;22.85;44.32;101057.81;7400611;19;1638;-40
2022/07/12 01:50:12;;;;;;;;;;;;;;;22.88;44.27;101064.75;7400135;19;1727;-41
2022/07/12 01:52:42;;;;;;;;;;;;;;;22.91;44.37;101059.06;7398896;19;1861;-41
2022/07/12 01:55:11;;;;;;;;;;;;;;;22.88;44.11;101056.66;7399811;19;1833;-41
2022/07/12 01:57:44;;;;;;;;;;;;;;;22.90;44.28;101060.06;7399768;19;1853;-41
2022/07/12 02:02:41;;;;;;;;;;;;;;;22.87;44.15;101052.28;7401168;19;1331;-56
2022/07/12 02:05:10;;;;;;;;;;;;;;;22.81;44.24;101051.88;7409694;19;1590;-56
2022/07/12 02:07:39;;;;;;;;;;;;;;;22.84;44.41;101056.16;7409933;19;1464;-56
2022/07/12 02:10:08;;;;;;;;;;;;;;;22.75;44.40;101048.97;7410033;19;1449;-57
2022/07/12 02:12:38;;;;;;;;;;;;;;;22.67;44.64;101057.81;7406853;19;1434;-57
2022/07/12 02:15:10;;;;;;;;;;;;;;;22.67;44.56;101065.06;7409857;19;1343;-57
2022/07/12 02:17:39;;;;;;;;;;;;;;;22.66;44.48;101049.88;7407476;19;1339;-57
2022/07/12 02:20:08;;;;;;;;;;;;;;;22.59;44.47;101069.34;7410040;19;1306;-57
2022/07/12 02:22:37;;;;;;;;;;;;;;;22.55;44.83;101051.78;7409537;19;1553;-56
2022/07/12 02:25:06;;;;;;;;;;;;;;;22.51;44.83;101052.25;7409279;19;1538;-56
2022/07/12 02:27:34;;;;;;;;;;;;;;;22.53;44.96;101074.50;7409501;19;1623;-57
2022/07/12 02:30:03;;;;;;;;;;;;;;;22.56;44.98;101075.06;7409590;19;1360;-57
2022/07/12 02:32:34;;;;;;;;;;;;;;;22.53;44.97;101074.50;7409092;19;1920;-57
2022/07/12 02:35:03;;;;;;;;;;;;;;;22.47;45.27;101067.03;7406173;19;1873;-57
2022/07/12 02:37:32;;;;;;;;;;;;;;;22.45;44.93;101086.03;7408365;19;1339;-57
2022/07/12 02:42:42;;;;;;;;;;;;;;;22.43;45.31;101066.47;7404593;19;2672;-57
2022/07/12 02:45:11;;;;;;;;;;;;;;;22.41;45.56;101087.34;7408319;19;1453;-56
2022/07/12 02:47:43;;;;;;;;;;;;;;;22.44;45.31;101076.25;7409133;19;1616;-57
2022/07/12 02:50:12;;;;;;;;;;;;;;;22.43;44.97;101077.25;7410125;19;1568;-57
2022/07/12 02:52:40;;;;;;;;;;;;;;;22.49;45.26;101086.59;7409030;19;1574;-57
2022/07/12 02:55:09;;;;;;;;;;;;;;;22.42;45.30;101086.34;7405774;19;1834;-57
2022/07/12 02:57:37;;;;;;;;;;;;;;;22.43;45.22;101096.13;7408929;19;1226;-57
2022/07/12 03:00:07;;;;;;;;;;;;;;;22.38;45.41;101095.72;7409217;19;1627;-56
2022/07/12 03:02:36;;;;;;;;;;;;;;;22.33;45.51;101092.63;7406535;19;1542;-57
2022/07/12 03:05:05;;;;;;;;;;;;;;;;;;7408623;19;1846;-57
2022/07/12 03:07:36;;;;;;;;;;;;;;;22.27;45.87;101098.63;7407138;19;1445;-64
2022/07/12 03:10:05;;;;;;;;;;;;;;;22.25;45.48;101090.69;7407872;19;1162;-56
2022/07/12 03:12:33;;;;;;;;;;;;;;;22.40;45.42;101097.28;7403481;19;1564;-57
2022/07/12 03:15:02;;;;;;;;;;;;;;;22.46;45.16;101093.13;7403185;19;1848;-57
2022/07/12 03:17:31;;;;;;;;;;;;;;;22.49;45.32;101089.28;7407467;19;1596;-57
2022/07/12 03:19:59;;;;;;;;;;;;;;;22.38;45.20;101096.59;7406184;19;1684;-56
2022/07/12 03:22:28;;;;;;;;;;;;;;;22.43;45.77;101090.75;7407486;19;1323;-57
2022/07/12 03:24:59;;;;;;;;;;;;;;;22.42;45.69;101092.59;7407438;19;1538;-57
2022/07/12 03:27:28;;;;;;;;;;;;;;;22.28;45.87;101108.41;7406792;19;1363;-57
2022/07/12 03:29:57;;;;;;;;;;;;;;;22.34;45.64;101105.97;7406164;19;1300;-57
2022/07/12 03:32:25;;;;;;;;;;;;;;;22.32;45.25;101096.31;7402819;19;1731;-57
2022/07/12 03:34:54;;;;;;;;;;;;;;;22.33;45.51;101106.13;7402605;19;1855;-57
2022/07/12 03:37:23;;;;;;;;;;;;;;;22.37;45.46;101120.97;7401608;19;1680;-57
2022/07/12 03:39:53;;;;;;;;;;;;;;;22.37;44.88;101107.50;7404898;19;1548;-57
2022/07/12 03:42:24;;;;;;;;;;;;;;;22.40;44.98;101109.88;7405868;19;1391;-56
2022/07/12 03:44:52;;;;;;;;;;;;;;;22.45;44.94;101113.00;7407921;19;1320;-57
2022/07/12 03:47:21;;;;;;;;;;;;;;;22.46;44.77;101114.69;7405849;19;1578;-57
2022/07/12 03:49:49;;;;;;;;;;;;;;;22.48;44.52;101117.22;7405736;19;1286;-57
2022/07/12 03:52:18;;;;;;;;;;;;;;;22.49;44.99;101102.78;7402497;19;1274;-56
2022/07/12 03:54:46;;;;;;;;;;;;;;;22.51;44.61;101095.38;7405419;19;1840;-57
2022/07/12 03:57:17;;;;;;;;;;;;;;;22.52;44.53;101108.72;7406112;19;1549;-57
2022/07/12 03:59:48;;;;;;;;;;;;;;;22.53;44.66;101104.16;7404773;19;1434;-57
2022/07/12 04:02:17;;;;;;;;;;;;;;;22.55;44.85;101110.25;7404640;19;1711;-57
2022/07/12 04:04:46;;;;;;;;;;;;;;;22.47;44.53;101104.78;7403709;19;1495;-57
2022/07/12 04:07:14;;;;;;;;;;;;;;;22.55;44.34;101115.63;7405861;19;1364;-57
2022/07/12 04:09:43;;;;;;;;;;;;;;;22.58;44.28;101097.31;7406261;19;1538;-56
2022/07/12 04:12:11;;;;;;;;;;;;;;;22.56;45.16;101103.84;7403873;19;1418;-57
2022/07/12 04:14:40;;;;;;;;;;;;;;;22.55;45.67;101108.41;7404914;19;1862;-57
2022/07/12 04:17:11;;;;;;;;;;;;;;;22.56;45.65;101109.22;7405366;19;1785;-57
2022/07/12 04:19:40;;;;;;;;;;;;;;;22.63;45.30;101111.19;7404730;19;1436;-57
2022/07/12 04:22:08;;;;;;;;;;;;;;;22.57;45.76;101089.38;7405094;19;1382;-57
2022/07/12 04:24:37;;;;;;;;;;;;;;;22.47;45.85;101119.09;7404663;19;1336;-57
2022/07/12 04:27:05;;;;;;;;;;;;;;;22.45;45.53;101121.09;7404561;19;1790;-57
2022/07/12 04:29:34;;;;;;;;;;;;;;;22.48;45.92;101117.22;7404176;19;1876;-57
2022/07/12 04:32:02;;;;;;;;;;;;;;;22.53;45.84;101125.72;7405830;19;1556;-57
2022/07/12 04:34:33;;;;;;;;;;;;;;;22.40;46.03;101126.94;7404907;19;1880;-57
2022/07/12 04:37:01;;;;;;;;;;;;;;;22.46;45.80;101130.84;7405683;19;1442;-57
2022/07/12 04:39:30;;;;;;;;;;;;;;;22.22;46.24;101123.25;7405394;19;1782;-56
2022/07/12 04:41:58;;;;;;;;;;;;;;;22.30;45.67;101138.72;7405709;19;1350;-57
2022/07/12 04:44:27;;;;;;;;;;;;;;;22.28;46.14;101143.41;7405498;19;1625;-57
2022/07/12 04:46:55;;;;;;;;;;;;;;;22.33;45.71;101130.34;7405550;19;1352;-56
2022/07/12 04:49:23;;;;;;;;;;;;;;;22.33;45.89;101130.34;7404526;19;1644;-57
2022/07/12 04:51:54;;;;;;;;;;;;;;;22.63;45.79;101132.75;7403149;19;1214;-57
2022/07/12 04:54:23;;;;;;;;;;;;;;;22.79;45.77;101137.47;7403933;19;1842;-58
2022/07/12 04:56:51;;;;;;;;;;;;;;;22.87;45.76;101136.72;7403921;19;1416;-56
2022/07/12 04:59:20;;;;;;;;;;;;;;;22.92;45.80;101131.72;7403711;19;1549;-56
2022/07/12 05:01:48;;;;;;;;;;;;;;;22.94;45.79;101124.34;7403199;19;1492;-55
2022/07/12 05:04:16;;;;;;;;;;;;;;;22.90;45.90;101131.03;7404907;19;1454;-56
2022/07/12 05:06:45;;;;;;;;;;;;;;;23.01;46.18;101136.19;7404378;19;1378;-56
2022/07/12 05:09:16;;;;;;;;;;;;;;;23.05;45.72;101146.72;7404166;19;1601;-56
2022/07/12 05:11:44;;;;;;;;;;;;;;;23.10;45.96;101133.59;7403885;19;1789;-55
2022/07/12 05:14:13;;;;;;;;;;;;;;;23.08;45.93;101138.31;7403323;19;1853;-56
2022/07/12 05:16:41;;;;;;;;;;;;;;;23.06;46.76;101132.22;7404467;19;1560;-56
2022/07/12 05:19:10;;;;;;;;;;;;;;;23.06;47.40;101137.59;7404609;19;1445;-57
2022/07/12 05:21:40;;;;;;;;;;;;;;;23.12;46.70;101127.06;7404385;19;1779;-58
2022/07/12 05:24:09;;;;;;;;;;;;;;;23.11;46.25;101141.53;7403322;19;1568;-58
2022/07/12 05:26:41;;;;;;;;;;;;;;;23.09;46.24;101138.16;7403131;19;1692;-58
2022/07/12 05:29:09;;;;;;;;;;;;;;;23.12;46.47;101154.06;7403400;19;1462;-58
2022/07/12 05:31:38;;;;;;;;;;;;;;;23.15;46.19;101166.38;7404544;19;1365;-58
2022/07/12 05:34:06;;;;;;;;;;;;;;;23.16;46.32;101154.59;7403664;19;1858;-58
2022/07/12 05:36:34;;;;;;;;;;;;;;;23.15;46.38;101163.69;7408815;19;1791;-58
2022/07/12 05:39:03;;;;;;;;;;;;;;;23.17;46.46;101158.97;7411513;19;1773;-58
2022/07/12 05:41:31;;;;;;;;;;;;;;;23.16;46.13;101160.00;7410310;19;1541;-57
2022/07/12 05:44:02;;;;;;;;;;;;;;;23.19;46.45;101162.38;7411168;19;1329;-58
2022/07/12 05:46:31;;;;;;;;;;;;;;;23.22;46.25;101165.63;7409174;19;1644;-59
2022/07/12 05:48:59;;;;;;;;;;;;;;;23.22;46.58;101143.19;7410239;19;1490;-58
2022/07/12 05:54:10;;;;;;;;;;;;;;;23.20;46.71;101169.47;7410958;19;1859;-55
2022/07/12 05:56:38;;;;;;;;;;;;;;;23.22;46.24;101162.06;7407661;19;1619;-59
2022/07/12 05:59:10;;;;;;;;;;;;;;;23.25;46.07;101166.31;7404009;19;1448;-61
2022/07/12 06:01:38;;;;;;;;;;;;;;;23.26;46.32;101176.94;7407743;19;1115;-61
2022/07/12 06:04:07;;;;;;;;;;;;;;;23.28;46.60;101157.88;7409312;19;1354;-60
2022/07/12 06:06:35;;;;;;;;;;;;;;;23.29;46.28;101165.84;7410697;19;1482;-61
2022/07/12 06:09:04;;;;;;;;;;;;;;;23.32;46.29;101154.75;7411160;19;1348;-60
2022/07/12 06:11:33;;;;;;;;;;;;;;;23.32;46.92;101165.53;7407739;19;1762;-59
2022/07/12 06:14:01;;;;;;;;;;;;;;;23.36;46.91;101166.09;7410691;19;1841;-61
2022/07/12 06:16:32;;;;;;;;;;;;;;;23.29;46.38;101165.84;7410258;19;1173;-59
2022/07/12 06:19:01;;;;;;;;;;;;;;;23.27;46.36;101164.28;7409759;19;1731;-59
2022/07/12 06:21:29;;;;;;;;;;;;;;;23.30;46.51;101158.56;7410435;19;1458;-58
2022/07/12 06:23:58;;;;;;;;;;;;;;;23.31;46.58;101171.91;7407903;19;1771;-59
2022/07/12 06:26:27;;;;;;;;;;;;;;;23.35;46.50;101169.78;7409291;19;1392;-60
2022/07/12 06:28:55;;;;;;;;;;;;;;;23.37;46.22;101155.09;7409394;19;1269;-60
2022/07/12 06:31:25;;;;;;;;;;;;;;;23.39;46.35;101163.91;7410149;19;1395;-59
2022/07/12 06:33:56;;;;;;;;;;;;;;;23.42;46.23;101155.50;7409297;19;1490;-58
2022/07/12 06:36:24;;;;;;;;;;;;;;;23.40;46.29;101159.38;7406444;19;1854;-58
2022/07/12 06:38:53;;;;;;;;;;;;;;;23.41;46.07;101158.34;7409193;19;1369;-58
2022/07/12 06:41:21;;;;;;;;;;;;;;;23.40;46.22;101157.50;7407608;19;1550;-58
2022/07/12 06:43:50;;;;;;;;;;;;;;;23.43;46.18;101172.53;7408759;19;1536;-57
2022/07/12 06:46:18;;;;;;;;;;;;;;;23.41;46.18;101164.59;7406283;19;1350;-58
2022/07/12 06:48:46;;;;;;;;;;;;;;;23.39;46.47;101147.69;7406982;19;1640;-58
2022/07/12 06:51:18;;;;;;;;;;;;;;;23.43;46.18;101154.47;7407822;19;1553;-58
2022/07/12 06:53:46;;;;;;;;;;;;;;;23.41;46.40;101169.16;7407780;19;1416;-58
2022/07/12 06:56:15;;;;;;;;;;;;;;;23.47;46.40;101167.69;7405449;19;1848;-58
2022/07/12 06:58:44;;;;;;;;;;;;;;;23.42;46.30;101163.59;7406861;19;1358;-58
2022/07/12 07:01:12;;;;;;;;;;;;;;;23.50;46.35;101173.63;7405672;19;1445;-57
2022/07/12 07:03:41;;;;;;;;;;;;;;;23.53;46.41;101161.66;7406249;19;1701;-58
2022/07/12 07:06:09;;;;;;;;;;;;;;;23.54;46.85;101174.16;7407362;19;1299;-58
2022/07/12 07:08:40;;;;;;;;;;;;;;;23.50;46.62;101176.31;7407943;19;1446;-54
2022/07/12 07:11:09;;;;;;;;;;;;;;;23.58;47.15;101197.16;7405056;19;1484;-59
2022/07/12 07:13:37;;;;;;;;;;;;;;;23.52;46.84;101176.19;7406451;19;1478;-56
2022/07/12 07:16:06;;;;;;;;;;;;;;;23.51;46.65;101174.47;7406526;19;1857;-58
2022/07/12 07:18:34;;;;;;;;;;;;;;;23.50;46.94;101179.03;7407104;19;1734;-58
2022/07/12 07:21:02;;;;;;;;;;;;;;;23.52;46.72;101168.09;7407817;19;1546;-59
2022/07/12 07:23:31;;;;;;;;;;;;;;;23.58;46.80;101159.34;7405756;19;1299;-57
2022/07/12 07:26:02;;;;;;;;;;;;;;;23.61;47.41;101167.13;7407260;19;1340;-59
2022/07/12 07:28:30;;;;;;;;;;;;;;;23.70;47.69;101168.06;7406263;19;1560;-54
2022/07/12 07:30:58;;;;;;;;;;;;;;;23.64;47.88;101174.94;7403903;19;1423;-55
2022/07/12 07:33:27;;;;;;;;;;;;;;;23.69;47.74;101175.28;7407228;19;1363;-55
2022/07/12 07:35:56;;;;;;;;;;;;;;;23.71;48.08;101177.84;7404633;19;1853;-52
2022/07/12 07:38:24;;;;;;;;;;;;;;;23.71;48.12;101172.44;7406728;19;1545;-55
2022/07/12 07:40:53;;;;;;;;;;;;;;;23.73;48.50;101168.56;7407264;19;1331;-55
2022/07/12 07:43:24;;;;;;;;;;;;;;;23.77;48.69;101169.09;7404895;19;1589;-54
2022/07/12 07:45:53;;;;;;;;;;;;;;;23.70;49.08;101165.34;7407450;19;1251;-55
2022/07/12 07:48:21;;;;;;;;;;;;;;;23.75;49.74;101165.72;7404973;19;1292;-54
2022/07/12 07:50:50;;;;;;;;;;;;;;;23.74;50.18;101166.72;7405835;19;1343;-57
2022/07/12 07:53:18;;;;;;;;;;;;;;;23.80;51.60;101164.28;7407738;19;1304;-54
2022/07/12 07:55:47;;;;;;;;;;;;;;;23.85;50.81;101177.28;7404459;19;1866;-55
2022/07/12 07:58:17;;;;;;;;;;;;;;;23.93;51.21;101171.94;7405136;19;1752;-56
2022/07/12 08:00:48;;;;;;;;;;;;;;;23.92;51.43;101172.13;7404376;19;1458;-60
2022/07/12 08:03:16;;;;;;;;;;;;;;;23.92;51.29;101161.31;7403578;19;1447;-58
2022/07/12 08:05:45;;;;;;;;;;;;;;;23.95;52.58;101171.78;7404006;19;1673;-61
2022/07/12 08:08:13;;;;;;;;;;;;;;;23.89;52.37;101167.88;7405149;19;1735;-62
2022/07/12 08:10:42;;;;;;;;;;;;;;;23.92;52.57;101161.31;7402591;19;1451;-59
2022/07/12 08:13:10;;;;;;;;;;;;;;;23.89;53.22;101159.75;7404371;19;1402;-58
2022/07/12 08:15:39;;;;;;;;;;;;;;;23.87;52.32;101153.69;7396653;19;1865;-59
2022/07/12 08:18:10;;;;;;;;;;;;;;;23.84;52.84;101169.38;7401365;19;1346;-59
2022/07/12 08:20:39;;;;;;;;;;;;;;;23.97;53.46;101165.25;7399541;19;1669;-57
2022/07/12 08:23:07;;;;;;;;;;;;;;;24.08;51.85;101156.03;7398996;19;1426;-59
2022/07/12 08:25:36;;;;;;;;;;;;;;;23.98;52.92;101136.38;7397819;19;1487;-61
2022/07/12 08:28:05;;;;;;;;;;;;;;;24.01;52.87;101155.81;7398501;19;1279;-57
2022/07/12 08:30:33;;;;;;;;;;;;;;;24.06;52.82;101141.81;7400522;19;1485;-56
2022/07/12 08:33:02;;;;;;;;;;;;;;;24.02;52.67;101152.09;7403945;19;1447;-59
2022/07/12 08:35:33;;;;;;;;;;;;;;;23.99;52.96;101147.03;7401536;19;1853;-59
2022/07/12 08:38:02;;;;;;;;;;;;;;;24.02;54.37;101141.28;7405190;19;1462;-63
2022/07/12 08:40:30;;;;;;;;;;;;;;;23.54;54.79;101147.19;7402426;19;1446;-66
2022/07/12 08:42:59;;;;;;;;;;;;;;;22.72;55.26;101139.09;7402225;19;1274;-63
2022/07/12 08:45:28;;;;;;;;;;;;;;;22.24;54.70;101151.81;7399732;19;1368;-62
2022/07/12 08:47:57;;;;;;;;;;;;;;;21.89;54.51;101140.84;7404486;19;1370;-67
2022/07/12 08:50:26;;;;;;;;;;;;;;;22.11;54.31;101150.41;7401252;19;1332;-62
2022/07/12 08:52:58;;;;;;;;;;;;;;;22.57;56.90;101140.59;7406226;19;1378;-63
2022/07/12 08:55:28;;;;;;;;;;;;;;;23.01;55.98;101135.34;7402640;19;1849;-66
2022/07/12 08:57:57;;;;;;;;;;;;;;;23.34;54.21;101136.53;7404577;19;1493;-60
2022/07/12 09:00:26;;;;;;;;;;;;;;;23.49;54.01;101127.88;7402621;19;1379;-60
2022/07/12 09:02:55;;;;;;;;;;;;;;;23.57;54.18;101128.78;7402562;19;1454;-59
2022/07/12 09:05:24;;;;;;;;;;;;;;;23.65;54.81;101133.41;7402440;19;1339;-65
2022/07/12 09:07:53;;;;;;;;;;;;;;;23.67;54.46;101123.28;7404226;19;1276;-61
2022/07/12 09:10:25;;;;;;;;;;;;;;;23.65;54.05;101130.69;7402642;19;1529;-61
2022/07/12 09:12:53;;;;;;;;;;;;;;;23.66;54.46;101118.91;7402423;19;1311;-61
2022/07/12 09:15:23;;;;;;;;;;;;;;;23.67;54.35;101120.59;7401926;19;1844;-65
2022/07/12 09:17:58;;;;;;;;;;;;;;;23.72;54.42;101107.47;7400995;19;1447;-60
2022/07/12 09:20:27;;;;;;;;;;;;;;;23.71;54.42;101116.56;7401619;19;1443;-58
2022/07/12 09:23:00;;;;;;;;;;;;;;;23.77;54.43;101118.66;7402600;19;1307;-59
2022/07/12 09:25:32;;;;;;;;;;;;;;;23.79;54.85;101103.16;7400123;19;1265;-55
2022/07/12 09:28:01;;;;;;;;;;;;;;;23.80;54.69;101104.88;7403205;19;1304;-58
2022/07/12 09:30:30;;;;;;;;;;;;;;;23.80;54.71;101110.25;7401437;19;1556;-61
2022/07/12 09:38:24;;;;;;;;;;;;;;;23.81;54.22;101111.09;7402365;19;1487;-56
2022/07/12 09:40:55;;;;;;;;;;;;;;;23.71;54.61;101089.56;7401131;19;1293;-58
2022/07/12 09:43:25;;;;;;;;;;;;;;;23.71;54.69;101096.84;7399781;19;1469;-56
2022/07/12 09:45:53;;;;;;;;;;;;;;;23.69;54.43;101090.75;7402206;19;1307;-59
2022/07/12 09:48:23;;;;;;;;;;;;;;;23.71;54.52;101099.53;7402146;19;1456;-59
2022/07/12 09:50:52;;;;;;;;;;;;;;;23.65;57.19;101098.31;7401363;19;1562;-59
2022/07/12 09:53:25;;;;;;;;;;;;;;;22.96;58.13;101094.50;7402252;19;1366;-59
2022/07/12 09:55:56;;;;;;;;;;;;;;;22.20;57.63;101091.13;7402815;19;1849;-58
2022/07/12 09:58:33;;;;;;;;;;;;;;;21.72;56.79;101085.88;7401025;19;1378;-55
2022/07/12 10:01:02;;;;;;;;;;;;;;;21.47;56.04;101084.66;7400721;19;1499;-55
2022/07/12 10:03:31;;;;;;;;;;;;;;;21.42;54.83;101096.66;7403029;19;1580;-55
2022/07/12 10:06:02;;;;;;;;;;;;;;;21.39;54.47;101094.28;7402312;19;1422;-55
2022/07/12 10:08:31;;;;;;;;;;;;;;;21.83;54.03;101091.09;7401867;19;1328;-55
2022/07/12 10:11:02;;;;;;;;;;;;;;;21.77;55.52;101080.94;7400570;19;1701;-55
2022/07/12 10:13:31;;;;;;;;;;;;;;;21.72;56.02;101073.25;7401352;19;1787;-55
2022/07/12 10:16:01;;;;;;;;;;;;;;;21.73;56.57;101083.06;7401397;19;1849;-55
2022/07/12 10:18:30;;;;;;;;;;;;;;;21.75;56.77;101089.16;7401971;19;1550;-55
2022/07/12 10:20:58;;;;;;;;;;;;;;;21.65;57.41;101073.00;7401101;19;1873;-55
2022/07/12 10:23:31;;;;;;;;;;;;;;;21.60;57.99;101071.75;7410272;19;1128;-55
2022/07/12 10:26:02;;;;;;;;;;;;;;;21.79;57.78;101071.69;7408088;19;1637;-55
2022/07/12 10:28:48;;;;;;;;;;;;;;;21.61;58.08;101068.06;7407281;19;1564;-55
2022/07/12 10:31:18;;;;;;;;;;;;;;;21.69;58.36;101067.34;7406847;19;1730;-55
2022/07/12 10:33:46;;;;;;;;;;;;;;;21.62;58.27;101075.97;7407314;19;1554;-55
2022/07/12 10:36:15;;;;;;;;;;;;;;;21.59;58.57;101068.22;7406890;19;1857;-55
2022/07/12 10:38:43;;;;;;;;;;;;;;;21.62;59.00;101073.28;7410034;19;1305;-55
2022/07/12 10:41:24;;;;;;;;;;;;;;;21.57;58.85;101075.59;7407559;19;1616;-55
2022/07/12 10:44:07;;;;;;;;;;;;;;;21.53;59.49;101073.34;7409226;19;1349;-55
2022/07/12 10:46:37;;;;;;;;;;;;;;;21.54;59.45;101066.94;7408293;19;1558;-55
2022/07/12 10:49:29;;;;;;;;;;;;;;;21.51;59.24;101069.94;7407542;19;1600;-55
2022/07/12 10:52:18;;;;;;;;;;;;;;;21.64;59.21;101054.31;7406340;19;2555;-55
2022/07/12 10:54:50;;;;;;;;;;;;;;;21.65;59.44;101062.25;7406591;19;1304;-55
2022/07/12 10:57:40;;;;;;;;;;;;;;;21.73;59.13;101056.13;7405770;19;1861;-55
2022/07/12 11:00:09;;;;;;;;;;;;;;;21.68;58.94;101061.09;7406457;19;1291;-55
2022/07/12 11:02:38;;;;;;;;;;;;;;;21.78;58.77;101061.91;7406061;19;1387;-55
2022/07/12 11:05:08;;;;;;;;;;;;;;;21.69;59.15;101061.97;7406879;19;1302;-55
2022/07/12 11:07:36;;;;;;;;;;;;;;;21.66;58.98;101057.72;7407176;19;1480;-55
2022/07/12 11:10:06;;;;;;;;;;;;;;;21.59;59.50;101062.84;7406797;19;1300;-55
2022/07/12 11:12:37;;;;;;;;;;;;;;;21.63;59.15;101058.00;7405101;19;1772;-55
2022/07/12 11:15:06;;;;;;;;;;;;;;;21.65;59.04;101061.41;7408155;19;1316;-55
2022/07/12 11:17:35;;;;;;;;;;;;;;;21.59;59.37;101068.22;7406164;19;1853;-55
2022/07/12 11:20:08;;;;;;;;;;;;;;;21.50;59.54;101062.84;7405288;19;1704;-55
2022/07/12 11:22:36;;;;;;;;;;;;;;;21.65;59.26;101073.00;7405175;19;1459;-55
2022/07/12 11:25:05;;;;;;;;;;;;;;;21.51;59.73;101059.19;7406881;19;1435;-55
2022/07/12 11:27:36;;;;;;;;;;;;;;;21.62;59.24;101053.59;7405566;19;1272;-55
2022/07/12 11:30:06;;;;;;;;;;;;;;;21.40;60.02;101055.59;7406744;19;1312;-55
2022/07/12 11:32:38;;;;;;;;;;;;;;;21.45;60.03;101055.22;7406650;19;1368;-55
2022/07/12 11:35:19;;;;;;;;;;;;;;;21.40;60.06;101058.28;7407856;19;1858;-55
2022/07/12 11:37:51;;;;;;;;;;;;;;;21.32;60.38;101047.41;7405584;19;1857;-55
2022/07/12 11:40:23;;;;;;;;;;;;;;;21.31;60.55;101037.66;7406539;19;1562;-55
2022/07/12 11:42:58;;;;;;;;;;;;;;;21.30;60.51;101041.31;7406541;19;1553;-55
2022/07/12 11:45:27;;;;;;;;;;;;;;;21.32;60.58;101042.03;7407279;19;1352;-55
2022/07/12 11:47:56;;;;;;;;;;;;;;;21.80;59.14;101043.78;7406377;19;1292;-55
2022/07/12 11:50:24;;;;;;;;;;;;;;;;;;7406724;19;1162;-55
2022/07/12 11:52:52;;;;;;;;;;;;;;;22.63;56.87;101030.31;7407492;19;1269;-55
2022/07/12 11:55:21;;;;;;;;;;;;;;;22.77;56.04;101036.19;7403539;19;1268;-63
2022/07/12 11:57:49;;;;;;;;;;;;;;;22.84;56.37;101015.69;7405223;19;1910;-63
2022/07/12 12:00:23;;;;;;;;;;;;;;;22.90;55.80;101025.00;7407751;19;1597;-64
2022/07/12 12:02:53;;;;;;;;;;;;;;;22.96;55.70;101017.16;7407503;19;1437;-60
2022/07/12 12:05:22;;;;;;;;;;;;;;;22.94;55.76;101018.28;7406397;19;1320;-58
2022/07/12 12:07:51;;;;;;;;;;;;;;;22.98;55.81;101028.63;7407024;19;1362;-58
2022/07/12 12:10:19;;;;;;;;;;;;;;;23.02;55.64;101034.59;7401981;19;1273;-59
2022/07/12 12:12:49;;;;;;;;;;;;;;;23.00;55.55;101037.41;7403218;19;1565;-59
2022/07/12 12:15:18;;;;;;;;;;;;;;;23.01;55.77;101043.66;7406661;19;1375;-58
2022/07/12 12:17:56;;;;;;;;;;;;;;;23.05;55.43;101025.34;7403893;19;1851;-59
2022/07/12 12:20:25;;;;;;;;;;;;;;;23.09;55.42;101034.81;7406480;19;1503;-59
2022/07/12 12:22:55;;;;;;;;;;;;;;;23.11;55.50;101044.44;7405092;19;1287;-59
2022/07/12 12:25:24;;;;;;;;;;;;;;;23.10;55.27;101037.34;7404347;19;1474;-58
2022/07/12 12:27:56;;;;;;;;;;;;;;;23.15;55.49;101039.56;7404462;19;1855;-59
2022/07/12 12:30:25;;;;;;;;;;;;;;;23.17;55.21;101041.09;7403544;19;1590;-59
2022/07/12 12:32:57;;;;;;;;;;;;;;;23.15;55.51;101035.03;7404437;19;1378;-58
2022/07/12 12:35:32;;;;;;;;;;;;;;;23.17;55.52;101040.28;7404137;19;1253;-59
2022/07/12 12:38:02;;;;;;;;;;;;;;;23.16;55.19;101030.50;7403607;19;1850;-59
2022/07/12 12:40:32;;;;;;;;;;;;;;;23.24;55.22;101022.47;7403281;19;1285;-58
2022/07/12 12:43:11;;;;;;;;;;;;;;;23.18;55.32;101012.31;7404534;19;1560;-59
2022/07/12 12:45:50;;;;;;;;;;;;;;;23.22;55.08;101008.28;7401961;19;1284;-59
2022/07/12 12:48:25;;;;;;;;;;;;;;;23.32;54.91;101016.28;7402898;19;1343;-59
2022/07/12 12:50:55;;;;;;;;;;;;;;;23.29;55.35;101020.13;7402514;19;1383;-59
2022/07/12 12:53:25;;;;;;;;;;;;;;;23.27;55.09;101019.44;7401085;19;1462;-59
2022/07/12 12:55:54;;;;;;;;;;;;;;;23.33;55.49;100989.13;7400926;19;1272;-58
2022/07/12 12:58:24;;;;;;;;;;;;;;;23.35;55.30;100999.75;7401830;19;1865;-57
2022/07/12 13:00:53;;;;;;;;;;;;;;;23.41;55.22;101005.34;7402816;19;1099;-58
2022/07/12 13:03:26;;;;;;;;;;;;;;;23.48;55.07;101007.44;7397738;19;1441;-58
2022/07/12 13:05:57;;;;;;;;;;;;;;;23.51;54.99;100999.00;7402282;19;1311;-59
2022/07/12 13:08:27;;;;;;;;;;;;;;;23.43;55.28;100989.00;7401816;19;1529;-59
2022/07/12 13:13:36;;;;;;;;;;;;;;;23.50;55.32;100986.53;7400065;19;2220;-61
2022/07/12 13:16:04;;;;;;;;;;;;;;;23.47;55.42;101006.56;7401877;19;1363;-59